createdAt,value
2014-08-10T00:06:21.425Z,101271
2014-08-10T00:12:21.920Z,101271
2014-08-10T00:19:22.480Z,101259
2014-08-10T00:26:23.041Z,101256
2014-08-10T00:34:23.634Z,101241
2014-08-10T00:41:24.195Z,101241
2014-08-10T00:48:24.755Z,101244
2014-08-10T00:55:25.299Z,101238
2014-08-10T01:04:25.956Z,101232
2014-08-10T01:12:26.566Z,101226
2014-08-10T01:20:27.175Z,101226
2014-08-10T01:27:27.720Z,101212
2014-08-10T01:36:28.378Z,101212
2014-08-10T01:45:29.035Z,101209
2014-08-10T01:52:29.581Z,101197
2014-08-10T01:58:30.093Z,101194
2014-08-10T02:06:30.685Z,101188
2014-08-10T02:15:31.343Z,101179
2014-08-10T02:24:32.001Z,101185
2014-08-10T02:30:32.497Z,101185
2014-08-10T02:39:33.154Z,101194
2014-08-10T06:04:00.015Z,101147
2014-08-10T06:13:00.657Z,101111
2014-08-10T06:21:01.266Z,101123
2014-08-10T06:30:01.924Z,101108
2014-08-10T06:36:02.420Z,101113
2014-08-10T06:43:02.964Z,101110
2014-08-10T06:53:03.656Z,101119
2014-08-10T07:01:04.250Z,101110
2014-08-10T07:08:04.779Z,101107
2014-08-10T07:14:05.259Z,101087
2014-08-10T07:21:05.787Z,101066
2014-08-10T07:30:06.446Z,101052
2014-08-10T07:38:07.040Z,101049
2014-08-10T07:46:07.633Z,101034
2014-08-10T07:54:08.226Z,101011
2014-08-10T08:03:08.884Z,100993
2014-08-10T08:12:09.526Z,100987
2014-08-10T08:19:10.086Z,100976
2014-08-10T08:29:10.777Z,100982
2014-08-10T08:39:11.499Z,100959
2014-08-10T08:47:12.108Z,100944
2014-08-10T08:56:12.751Z,100941
2014-08-10T09:05:13.425Z,100924
2014-08-10T09:14:14.052Z,100888
2014-08-10T09:20:14.533Z,100882
2014-08-10T09:28:15.126Z,100885
2014-08-10T09:36:15.719Z,100879
2014-08-10T09:44:16.328Z,100865
2014-08-10T09:52:16.906Z,100871
2014-08-10T10:00:17.500Z,100853
2014-08-10T10:09:18.142Z,100856
2014-08-10T10:18:18.800Z,100833
2014-08-10T10:28:19.521Z,100822
2014-08-10T10:38:20.228Z,100787
2014-08-10T10:47:20.870Z,100766
2014-08-10T11:05:22.187Z,100743
2014-08-10T11:11:22.684Z,100719
2014-08-10T11:15:40.645Z,100719
2014-08-10T11:23:41.238Z,100698
2014-08-10T11:32:41.897Z,100681
2014-08-10T11:40:42.506Z,100649
2014-08-10T11:46:43.018Z,100660
2014-08-10T11:54:43.626Z,100632
2014-08-10T12:12:14.674Z,100608
2014-08-10T12:21:15.333Z,100570
2014-08-10T12:29:15.942Z,100553
2014-08-10T12:37:16.551Z,100523
2014-08-10T12:44:15.988Z,100538
2014-08-10T12:51:16.547Z,100512
2014-08-10T12:59:17.156Z,100497
2014-08-10T13:07:17.765Z,100479
2014-08-10T13:15:18.374Z,100471
2014-08-10T13:23:18.983Z,100474
2014-08-10T13:31:19.593Z,100474
2014-08-10T13:37:20.105Z,100488
2014-08-10T13:44:20.664Z,100468
2014-08-10T13:52:21.258Z,100442
2014-08-10T14:00:21.883Z,100436
2014-08-10T14:09:22.555Z,100442
2014-08-10T14:18:23.214Z,100409
2014-08-10T14:26:23.823Z,100415
2014-08-10T14:34:24.448Z,100406
2014-08-10T14:43:25.299Z,100376
2014-08-10T14:52:26.034Z,100359
2014-08-10T15:00:26.658Z,100347
2014-08-10T15:06:27.171Z,100359
2014-08-10T15:13:27.733Z,100338
2014-08-10T15:21:11.403Z,100330
2014-08-10T15:28:11.965Z,100303
2014-08-10T15:35:12.525Z,100287
2014-08-10T15:41:13.021Z,100281
2014-08-10T15:50:13.695Z,100251
2014-08-10T15:58:14.303Z,100242
2014-08-10T16:07:14.962Z,100227
2014-08-10T16:15:15.571Z,100230
2014-08-10T16:24:16.244Z,100212
2014-08-10T16:32:16.853Z,100204
2014-08-10T16:39:17.413Z,100189
2014-08-10T16:49:18.120Z,100174
2014-08-10T16:57:18.729Z,100142
2014-08-10T17:05:19.354Z,100107
2014-08-10T17:13:19.964Z,100080
2014-08-10T17:20:20.524Z,100063
2014-08-10T17:28:21.133Z,100060
2014-08-10T17:36:21.741Z,100054
2014-08-10T17:44:22.350Z,100060
2014-08-10T17:51:22.911Z,100054
2014-08-10T17:59:23.521Z,100074
2014-08-10T18:08:24.178Z,100080
2014-08-10T18:14:24.689Z,100092
2014-08-10T18:21:25.250Z,100074
2014-08-10T18:28:25.795Z,100069
2014-08-10T18:35:26.355Z,100092
2014-08-10T18:44:27.013Z,100113
2014-08-10T18:51:27.574Z,100116
2014-08-10T18:59:28.183Z,100119
2014-08-10T19:08:28.840Z,100113
2014-08-10T19:18:29.562Z,100104
2014-08-10T19:27:30.220Z,100110
2014-08-10T19:35:30.830Z,100080
2014-08-10T19:44:31.487Z,100104
2014-08-10T19:51:32.048Z,100098
2014-08-10T20:00:32.706Z,100089
2014-08-10T20:09:33.363Z,100098
2014-08-10T20:18:34.037Z,100104
2014-08-10T20:26:34.646Z,100080
2014-08-10T20:36:35.353Z,100060
2014-08-10T20:46:36.075Z,100063
2014-08-10T20:55:36.734Z,100077
2014-08-10T21:05:37.471Z,100063
2014-08-10T21:14:38.130Z,100055
2014-08-10T21:22:38.739Z,100049
2014-08-10T21:30:39.347Z,100058
2014-08-10T21:39:40.006Z,100077
2014-08-10T21:47:40.615Z,100066
2014-08-10T21:53:41.110Z,100095
2014-08-10T22:00:41.671Z,100092
2014-08-10T22:08:42.280Z,100110
2014-08-10T22:16:42.889Z,100119
2014-08-10T22:24:43.498Z,100159
2014-08-10T22:32:44.093Z,100177
2014-08-10T22:40:44.700Z,100198
2014-08-10T22:48:45.310Z,100192
2014-08-10T22:57:45.969Z,100186
2014-08-10T23:04:46.530Z,100209
2014-08-10T23:12:47.137Z,100212
2014-08-10T23:19:47.682Z,100218
2014-08-10T23:28:48.340Z,100230
2014-08-10T23:36:48.949Z,100266
2014-08-10T23:44:49.629Z,100260
2014-08-10T23:52:50.447Z,100286
